Terminal Aerodrome Forecast
Issued by NWS Buffalo, NY

Home | Current Version | Previous Version | Text Only | Print | Product List | Glossary On
Versions: 1 2 3 4 5 6 7 8 9 10 11 12 13 14 15 16 17 18 19 20 21
510
FTUS41 KBUF 252104 AAA
TAFART
TAF AMD
KART 252104Z 2521/2618 07007KT P6SM VCSH OVC070
     FM260000 09005KT P6SM OVC040
     FM260800 07004KT P6SM OVC025=

USA.gov is the U.S. government's official web portal to all federal, state and local government web resources and services.